Time;durP1;ratioP1;P1;durP2;ratioP2;P2;SDS_P1;SDS_P2;PMS_P1;PMS_P2;Temp;Humidity;BMP_temperature;BMP_pressure;BME280_temperature;BME280_humidity;BME280_pressure;Samples;Min_cycle;Max_cycle;Signal;HPM_P1;HPM_P2
2022/07/16 00:01:22;;;;;;;0.95;0.75;;;15.00;99.90;;;;;;4928273;28;20039;-80
2022/07/16 00:01:49;;;;;;;1.13;0.80;;;15.00;99.90;;;;;;4935393;28;20062;-80
2022/07/16 00:04:17;;;;;;;0.77;0.63;;;15.00;99.90;;;;;;4918544;29;20057;-80
2022/07/16 00:06:43;;;;;;;0.90;0.80;;;15.00;99.90;;;;;;4936359;29;20035;-80
2022/07/16 00:09:10;;;;;;;0.95;0.70;;;15.00;99.90;;;;;;4915981;29;20459;-80
2022/07/16 00:11:36;;;;;;;1.30;0.90;;;15.00;99.90;;;;;;4928867;29;20126;-80
2022/07/16 00:14:02;;;;;;;3.15;1.05;;;15.00;99.90;;;;;;4942177;29;20130;-80
2022/07/16 00:16:27;;;;;;;2.78;1.30;;;15.10;99.90;;;;;;4933488;28;20057;-80
2022/07/16 00:21:37;;;;;;;1.65;0.85;;;15.20;99.90;;;;;;4938888;29;20055;-80
2022/07/16 00:24:05;;;;;;;1.23;0.90;;;15.20;99.90;;;;;;4918258;29;20109;-80
2022/07/16 00:26:31;;;;;;;2.10;1.20;;;15.30;99.90;;;;;;4946447;28;20054;-81
2022/07/16 00:28:56;;;;;;;3.90;1.48;;;15.40;99.90;;;;;;4936866;28;20051;-80
2022/07/16 00:31:22;;;;;;;3.22;1.30;;;15.40;99.90;;;;;;4937405;28;20051;-80
2022/07/16 00:33:47;;;;;;;1.55;1.00;;;15.40;99.90;;;;;;4937423;29;20043;-80
2022/07/16 00:36:13;;;;;;;2.25;1.10;;;15.50;99.90;;;;;;4921544;29;20043;-80
2022/07/16 00:38:39;;;;;;;1.83;1.15;;;15.50;99.90;;;;;;4932752;29;20512;-80
2022/07/16 00:41:05;;;;;;;2.05;1.08;;;15.50;99.90;;;;;;4933058;29;20055;-82
2022/07/16 00:43:57;;;;;;;2.08;1.10;;;15.60;99.90;;;;;;4931491;29;20043;-82
2022/07/16 00:46:23;;;;;;;2.15;1.35;;;15.50;99.90;;;;;;4935826;29;20051;-80
2022/07/16 00:48:49;;;;;;;2.15;1.20;;;15.20;99.90;;;;;;4936045;29;20047;-81
2022/07/16 00:51:15;;;;;;;1.60;0.90;;;15.10;99.90;;;;;;4932260;29;20047;-81
2022/07/16 00:53:43;;;;;;;1.25;0.63;;;15.10;99.90;;;;;;4934920;28;20047;-81
2022/07/16 00:56:11;;;;;;;1.75;0.80;;;15.00;99.90;;;;;;4935288;29;20074;-81
2022/07/16 00:58:38;;;;;;;0.80;0.60;;;14.90;99.90;;;;;;4930823;28;20104;-81
2022/07/16 01:01:04;;;;;;;1.00;0.60;;;14.80;99.90;;;;;;4939629;29;20050;-81
2022/07/16 01:03:31;;;;;;;0.50;0.40;;;14.80;99.90;;;;;;4930910;28;20061;-81
2022/07/16 01:05:57;;;;;;;1.50;0.50;;;14.80;99.90;;;;;;4934977;29;20071;-81
2022/07/16 01:08:23;;;;;;;0.88;0.50;;;14.80;99.90;;;;;;4933182;28;20164;-82
2022/07/16 01:10:49;;;;;;;0.50;0.38;;;14.80;99.90;;;;;;4935757;29;20499;-81
2022/07/16 01:13:17;;;;;;;0.63;0.40;;;14.80;99.90;;;;;;4935690;29;20093;-81
2022/07/16 01:15:43;;;;;;;0.30;0.30;;;14.70;99.90;;;;;;4936901;29;20474;-82
2022/07/16 01:18:08;;;;;;;0.80;0.32;;;14.80;99.90;;;;;;4936499;29;20071;-82
2022/07/16 01:20:34;;;;;;;0.85;0.50;;;14.90;99.90;;;;;;4941351;28;20128;-82
2022/07/16 01:23:01;;;;;;;0.63;0.32;;;14.90;99.90;;;;;;4929640;29;20047;-81
2022/07/16 01:25:27;;;;;;;0.75;0.40;;;14.80;99.90;;;;;;4927482;29;20052;-81
2022/07/16 01:27:52;;;;;;;;;;;14.90;99.90;;;;;;4919116;28;20039;-82
2022/07/16 01:30:18;;;;;;;0.63;0.30;;;14.90;99.90;;;;;;4922669;29;19923;-81
2022/07/16 01:32:44;;;;;;;2.45;0.50;;;14.90;99.90;;;;;;4952193;28;20058;-81
2022/07/16 01:35:10;;;;;;;0.98;0.65;;;14.80;99.90;;;;;;4921355;29;20051;-81
2022/07/16 01:37:36;;;;;;;3.30;0.93;;;14.90;99.90;;;;;;4930309;29;20043;-81
2022/07/16 01:40:02;;;;;;;1.73;0.82;;;14.80;99.90;;;;;;4932993;29;20047;-81
2022/07/16 01:42:28;;;;;;;1.80;0.70;;;14.80;99.90;;;;;;4932634;28;20046;-80
2022/07/16 01:44:54;;;;;;;1.05;0.63;;;15.00;99.90;;;;;;4936043;29;20375;-81
2022/07/16 01:47:20;;;;;;;0.43;0.38;;;15.00;99.90;;;;;;4935098;29;20031;-81
2022/07/16 01:49:46;;;;;;;1.15;0.52;;;15.00;99.90;;;;;;4920104;29;20157;-81
2022/07/16 01:52:12;;;;;;;1.90;0.70;;;14.90;99.90;;;;;;4917826;29;21751;-81
2022/07/16 01:54:48;;;;;;;1.80;0.70;;;15.00;99.90;;;;;;4933238;29;20044;-81
2022/07/16 01:57:15;;;;;;;1.88;0.50;;;14.90;99.90;;;;;;4926509;29;20474;-81
2022/07/16 01:59:41;;;;;;;1.02;0.70;;;15.00;99.90;;;;;;4933833;29;20507;-81
2022/07/16 02:02:07;;;;;;;1.60;0.60;;;14.80;99.90;;;;;;4930397;28;20070;-82
2022/07/16 02:04:33;;;;;;;;;;;14.80;99.90;;;;;;4926860;28;20047;-81
2022/07/16 02:06:59;;;;;;;1.92;0.70;;;15.00;99.90;;;;;;4928745;28;20595;-80
2022/07/16 02:09:25;;;;;;;2.88;0.80;;;15.00;99.90;;;;;;4934422;29;20047;-80
2022/07/16 02:11:51;;;;;;;1.85;0.70;;;14.90;99.90;;;;;;4932892;28;20091;-81
2022/07/16 02:14:16;;;;;;;1.95;0.65;;;14.80;99.90;;;;;;4933133;28;20090;-82
2022/07/16 02:16:42;;;;;;;1.50;0.88;;;14.90;99.90;;;;;;4935213;29;20524;-81
2022/07/16 02:19:08;;;;;;;1.92;0.85;;;14.90;99.90;;;;;;4917883;29;20035;-81
2022/07/16 02:21:34;;;;;;;1.30;0.70;;;14.60;99.90;;;;;;4919718;29;20274;-81
2022/07/16 02:24:00;;;;;;;;;;;14.60;99.90;;;;;;4934125;29;20042;-81
2022/07/16 02:26:26;;;;;;;1.77;0.77;;;14.70;99.90;;;;;;4919397;29;19919;-81
2022/07/16 02:28:52;;;;;;;4.40;1.23;;;14.60;99.90;;;;;;4935596;29;20387;-75
2022/07/16 02:31:19;;;;;;;1.88;0.90;;;14.50;99.90;;;;;;4935245;29;20375;-75
2022/07/16 02:33:44;;;;;;;0.88;0.70;;;14.50;99.90;;;;;;4929830;29;20051;-74
2022/07/16 02:36:10;;;;;;;2.10;0.70;;;14.40;99.90;;;;;;4934848;29;20550;-75
2022/07/16 02:38:36;;;;;;;1.45;0.60;;;14.30;99.90;;;;;;4918251;28;20054;-74
2022/07/16 02:41:02;;;;;;;1.15;0.60;;;14.40;99.90;;;;;;4917750;29;20062;-75
2022/07/16 02:43:28;;;;;;;2.10;0.60;;;14.20;99.90;;;;;;4917815;29;20040;-75
2022/07/16 02:45:53;;;;;;;1.35;0.68;;;14.20;99.90;;;;;;4930418;29;20043;-75
2022/07/16 02:48:19;;;;;;;0.82;0.50;;;14.10;99.90;;;;;;4935324;28;20075;-75
2022/07/16 02:50:45;;;;;;;0.50;0.50;;;14.10;99.90;;;;;;4935043;29;20094;-75
2022/07/16 02:53:11;;;;;;;1.20;0.52;;;14.00;99.90;;;;;;4933127;29;20043;-75
2022/07/16 02:55:36;;;;;;;1.15;0.63;;;14.10;99.90;;;;;;4905927;29;20158;-75
2022/07/16 02:58:02;;;;;;;1.60;0.70;;;13.90;99.90;;;;;;4934717;29;20513;-75
2022/07/16 03:00:28;;;;;;;1.40;0.55;;;14.00;99.90;;;;;;4934132;29;20090;-75
2022/07/16 03:02:55;;;;;;;1.42;0.60;;;14.00;99.90;;;;;;4928013;29;20059;-75
2022/07/16 03:05:21;;;;;;;0.80;0.60;;;13.90;99.90;;;;;;4932265;29;20058;-75
2022/07/16 03:07:47;;;;;;;;;;;13.80;99.90;;;;;;4924517;29;20168;-75
2022/07/16 03:10:13;;;;;;;1.77;0.93;;;13.90;99.90;;;;;;4934071;29;19961;-75
2022/07/16 03:12:40;;;;;;;1.38;0.80;;;13.90;99.90;;;;;;4934494;29;20051;-75
2022/07/16 03:15:07;;;;;;;1.45;0.73;;;13.80;99.90;;;;;;4934418;29;20055;-75
2022/07/16 03:17:33;;;;;;;2.13;0.73;;;13.80;99.90;;;;;;4934273;28;20545;-75
2022/07/16 03:19:59;;;;;;;1.13;0.55;;;13.80;99.90;;;;;;4934448;29;20087;-75
2022/07/16 03:22:25;;;;;;;0.85;0.60;;;13.80;99.90;;;;;;4917104;29;20145;-75
2022/07/16 03:24:50;;;;;;;1.00;0.50;;;13.80;99.90;;;;;;4932745;29;20043;-75
2022/07/16 03:27:16;;;;;;;0.70;0.50;;;13.70;99.90;;;;;;4917558;29;20046;-74
2022/07/16 03:29:42;;;;;;;1.85;0.77;;;13.80;99.90;;;;;;4933189;28;20043;-75
2022/07/16 03:32:07;;;;;;;1.88;0.70;;;13.70;99.90;;;;;;4934405;29;20051;-75
2022/07/16 03:34:34;;;;;;;3.85;1.10;;;13.70;99.90;;;;;;4933704;29;20049;-74
2022/07/16 03:37:00;;;;;;;2.13;0.90;;;13.60;99.90;;;;;;4931959;29;20039;-75
2022/07/16 03:39:26;;;;;;;2.50;0.98;;;13.80;99.90;;;;;;4933740;29;20461;-74
2022/07/16 03:41:51;;;;;;;1.45;0.65;;;13.60;99.90;;;;;;4918051;29;20123;-75
2022/07/16 03:44:17;;;;;;;1.65;0.80;;;13.70;99.90;;;;;;4934426;29;20406;-75
2022/07/16 03:46:43;;;;;;;1.60;0.80;;;13.60;99.90;;;;;;4915311;29;20035;-75
2022/07/16 03:49:09;;;;;;;1.90;0.98;;;13.70;99.90;;;;;;4934186;29;20049;-74
2022/07/16 03:51:36;;;;;;;3.05;1.00;;;13.60;99.90;;;;;;4921087;28;20047;-74
2022/07/16 03:54:03;;;;;;;2.20;1.08;;;13.60;99.90;;;;;;4938109;29;20060;-75
2022/07/16 03:56:28;;;;;;;2.65;1.05;;;13.70;99.90;;;;;;4935838;28;20062;-75
2022/07/16 03:58:54;;;;;;;1.20;0.80;;;13.70;99.90;;;;;;4937711;29;20055;-75
2022/07/16 04:01:21;;;;;;;2.25;0.90;;;13.60;99.90;;;;;;4929219;29;20059;-75
2022/07/16 04:03:46;;;;;;;;;;;13.50;99.90;;;;;;4937089;28;20051;-75
2022/07/16 04:06:12;;;;;;;1.48;0.80;;;13.60;99.90;;;;;;4928666;29;20424;-74
2022/07/16 04:08:38;;;;;;;2.45;1.00;;;13.50;99.90;;;;;;4935863;29;20451;-74
2022/07/16 04:11:03;;;;;;;2.13;0.90;;;13.50;99.90;;;;;;4935170;29;20040;-74
2022/07/16 04:13:29;;;;;;;1.00;0.80;;;13.50;99.90;;;;;;4944510;29;20051;-74
2022/07/16 04:15:55;;;;;;;2.53;1.00;;;13.60;99.90;;;;;;4935531;29;20047;-74
2022/07/16 04:18:21;;;;;;;5.90;1.58;;;13.50;99.90;;;;;;4937960;29;20055;-75
2022/07/16 04:20:49;;;;;;;2.28;0.80;;;13.60;99.90;;;;;;4933167;29;20043;-75
2022/07/16 04:23:15;;;;;;;2.30;0.90;;;13.50;99.90;;;;;;4945447;28;20070;-75
2022/07/16 04:25:41;;;;;;;0.93;0.70;;;13.40;99.90;;;;;;4927226;29;20074;-75
2022/07/16 04:28:07;;;;;;;1.70;0.77;;;13.40;99.90;;;;;;4921850;29;20043;-75
2022/07/16 04:30:33;;;;;;;1.20;0.60;;;13.50;99.90;;;;;;4926103;29;20048;-75
2022/07/16 04:32:58;;;;;;;;;;;13.50;99.90;;;;;;4937088;29;20039;-75
2022/07/16 04:35:24;;;;;;;1.63;0.82;;;13.50;99.90;;;;;;4936321;29;19918;-75
2022/07/16 04:37:50;;;;;;;1.95;0.85;;;13.50;99.90;;;;;;4937815;29;20067;-75
2022/07/16 04:40:16;;;;;;;;;;;13.60;99.90;;;;;;4921967;29;20618;-75
2022/07/16 04:42:44;;;;;;;1.85;0.90;;;13.70;99.90;;;;;;4936847;28;20021;-75
2022/07/16 04:45:11;;;;;;;2.92;1.08;;;13.60;99.90;;;;;;4936730;28;20049;-75
2022/07/16 04:47:37;;;;;;;2.20;0.80;;;13.70;99.90;;;;;;4929093;28;20185;-75
2022/07/16 04:50:03;;;;;;;2.70;0.90;;;13.80;99.90;;;;;;4933963;29;20054;-75
2022/07/16 04:52:32;;;;;;;4.50;1.35;;;13.80;99.90;;;;;;4936148;28;20432;-75
2022/07/16 04:54:58;;;;;;;3.75;0.90;;;13.90;99.90;;;;;;4935702;29;20035;-75
2022/07/16 04:57:24;;;;;;;;;;;14.00;99.90;;;;;;4928402;29;20040;-75
2022/07/16 04:59:53;;;;;;;2.35;0.90;;;14.00;99.90;;;;;;4951339;28;19949;-75
2022/07/16 05:05:04;;;;;;;2.15;0.90;;;14.00;99.90;;;;;;4922936;29;20071;-75
2022/07/16 05:07:29;;;;;;;;;;;14.10;99.90;;;;;;4936356;28;20047;-75
2022/07/16 05:09:55;;;;;;;2.92;0.90;;;14.00;99.90;;;;;;4931775;29;20340;-75
2022/07/16 05:12:21;;;;;;;1.67;0.70;;;14.00;99.90;;;;;;4931570;29;20050;-75
2022/07/16 05:14:46;;;;;;;2.13;0.70;;;14.00;99.90;;;;;;4934408;29;20134;-75
2022/07/16 05:17:12;;;;;;;1.42;0.68;;;14.10;99.90;;;;;;4924518;28;20047;-75
2022/07/16 05:19:38;;;;;;;2.55;0.70;;;14.10;99.90;;;;;;4936077;29;20094;-75
2022/07/16 05:22:05;;;;;;;4.70;1.02;;;14.20;99.90;;;;;;4935037;29;20050;-75
2022/07/16 05:24:32;;;;;;;3.20;0.70;;;14.20;99.90;;;;;;4920788;29;20455;-75
2022/07/16 05:26:57;;;;;;;2.45;0.65;;;14.30;99.90;;;;;;4927331;29;20043;-75
2022/07/16 05:29:23;;;;;;;4.25;0.80;;;14.30;99.90;;;;;;4907047;29;20039;-74
2022/07/16 05:31:49;;;;;;;3.30;0.60;;;14.30;99.90;;;;;;4933058;28;20042;-80
2022/07/16 05:34:15;;;;;;;1.48;0.60;;;14.40;99.90;;;;;;4937447;28;20049;-80
2022/07/16 05:36:40;;;;;;;3.15;0.80;;;14.40;99.90;;;;;;4921088;29;20042;-81
2022/07/16 05:39:06;;;;;;;2.90;0.80;;;14.40;99.90;;;;;;4934874;28;20359;-79
2022/07/16 05:41:31;;;;;;;2.08;0.50;;;14.40;99.90;;;;;;4934584;29;20112;-80
2022/07/16 05:43:57;;;;;;;1.55;0.50;;;14.40;99.90;;;;;;4936077;29;20054;-80
2022/07/16 05:46:23;;;;;;;1.35;0.60;;;14.50;99.90;;;;;;4917711;29;20057;-77
2022/07/16 05:48:49;;;;;;;;;;;14.50;99.90;;;;;;4932738;29;20154;-78
2022/07/16 05:51:15;;;;;;;4.78;1.00;;;14.50;99.90;;;;;;4930018;29;20013;-77
2022/07/16 05:53:40;;;;;;;2.92;0.80;;;14.60;99.90;;;;;;4919376;29;20047;-77
2022/07/16 05:56:06;;;;;;;1.50;0.52;;;14.60;99.90;;;;;;4933989;29;20358;-77
2022/07/16 05:58:32;;;;;;;2.45;0.70;;;14.60;99.90;;;;;;4941342;28;20125;-77
2022/07/16 06:00:57;;;;;;;3.85;0.60;;;14.50;99.90;;;;;;4936341;29;20134;-77
2022/07/16 06:03:23;;;;;;;3.08;0.70;;;14.60;99.90;;;;;;4931202;29;20712;-79
2022/07/16 06:05:49;;;;;;;1.92;0.60;;;14.60;99.90;;;;;;4933739;29;20043;-77
2022/07/16 06:08:14;;;;;;;1.00;0.55;;;14.70;99.90;;;;;;4936099;29;20075;-77
2022/07/16 06:10:40;;;;;;;3.65;0.60;;;14.70;99.90;;;;;;4928712;28;20078;-77
2022/07/16 06:13:07;;;;;;;3.40;0.73;;;14.80;99.90;;;;;;4924839;28;20102;-78
2022/07/16 06:15:33;;;;;;;3.53;0.70;;;14.80;99.90;;;;;;4926387;29;20182;-77
2022/07/16 06:17:58;;;;;;;1.65;0.57;;;15.00;99.90;;;;;;4916907;28;20121;-77
2022/07/16 06:20:24;;;;;;;4.32;0.90;;;15.10;99.90;;;;;;4923066;29;20078;-77
2022/07/16 06:22:50;;;;;;;2.92;0.73;;;15.20;99.90;;;;;;4926780;29;20399;-77
2022/07/16 06:25:16;;;;;;;3.45;0.70;;;15.20;99.90;;;;;;4918569;29;20102;-77
2022/07/16 06:27:43;;;;;;;2.13;0.60;;;15.30;99.90;;;;;;4929482;29;20035;-78
2022/07/16 06:30:10;;;;;;;1.40;0.50;;;15.40;99.90;;;;;;4945773;28;20058;-78
2022/07/16 06:32:35;;;;;;;2.60;0.60;;;15.50;99.90;;;;;;4942829;29;20047;-77
2022/07/16 06:35:01;;;;;;;1.55;0.50;;;15.70;99.90;;;;;;4920280;29;20109;-77
2022/07/16 06:37:26;;;;;;;3.03;0.40;;;15.80;99.90;;;;;;4934832;29;20051;-77
2022/07/16 06:39:52;;;;;;;2.03;0.60;;;15.70;99.90;;;;;;4939247;28;20125;-77
2022/07/16 06:42:18;;;;;;;2.65;0.63;;;15.70;99.90;;;;;;4919033;29;20043;-77
2022/07/16 06:44:43;;;;;;;2.17;0.57;;;15.70;99.90;;;;;;4950419;28;20047;-78
2022/07/16 06:47:09;;;;;;;3.15;0.73;;;15.70;99.90;;;;;;4934342;29;20069;-78
2022/07/16 06:49:35;;;;;;;1.27;0.40;;;15.80;99.90;;;;;;4934713;29;20512;-77
2022/07/16 06:52:01;;;;;;;1.92;0.68;;;15.70;99.90;;;;;;4934455;29;20047;-78
2022/07/16 06:54:26;;;;;;;3.28;0.60;;;15.70;99.90;;;;;;4932762;29;20039;-78
2022/07/16 06:56:52;;;;;;;1.85;0.65;;;15.70;99.90;;;;;;4921581;29;20137;-78
2022/07/16 06:59:18;;;;;;;1.73;0.47;;;15.70;99.90;;;;;;4916313;29;20135;-78
2022/07/16 07:01:43;;;;;;;1.33;0.40;;;15.80;99.90;;;;;;4934212;29;20043;-77
2022/07/16 07:04:09;;;;;;;3.53;0.85;;;15.80;99.90;;;;;;4934253;29;20090;-80
2022/07/16 07:06:35;;;;;;;0.73;0.22;;;15.80;99.90;;;;;;4935976;28;20133;-79
2022/07/16 07:09:00;;;;;;;1.60;0.50;;;15.90;99.90;;;;;;4940970;29;20039;-80
2022/07/16 07:11:26;;;;;;;2.45;0.60;;;15.90;99.90;;;;;;4927596;28;20051;-79
2022/07/16 07:13:53;;;;;;;2.92;0.80;;;16.00;99.90;;;;;;4946281;29;20056;-80
2022/07/16 07:16:19;;;;;;;1.30;0.50;;;16.00;99.90;;;;;;4908035;29;20051;-80
2022/07/16 07:18:45;;;;;;;1.38;0.40;;;16.10;99.90;;;;;;4930729;29;20047;-80
2022/07/16 07:21:10;;;;;;;2.47;0.60;;;16.20;99.90;;;;;;4931581;29;20048;-80
2022/07/16 07:23:36;;;;;;;2.08;0.57;;;16.20;99.50;;;;;;4946813;29;20134;-80
2022/07/16 07:26:02;;;;;;;2.30;0.40;;;16.20;99.80;;;;;;4906214;29;20066;-80
2022/07/16 07:28:28;;;;;;;1.73;0.55;;;16.30;99.90;;;;;;4941095;29;20082;-80
2022/07/16 07:30:54;;;;;;;;;;;16.60;99.90;;;;;;4936758;29;20036;-80
2022/07/16 07:33:20;;;;;;;2.70;0.70;;;16.90;99.90;;;;;;4940700;29;19997;-80
2022/07/16 07:35:46;;;;;;;0.90;0.40;;;16.80;99.10;;;;;;4940915;28;20062;-80
2022/07/16 07:38:12;;;;;;;2.05;0.60;;;16.80;99.90;;;;;;4940206;29;20047;-80
2022/07/16 07:40:38;;;;;;;3.33;0.77;;;16.60;99.60;;;;;;4930794;29;20181;-80
2022/07/16 07:43:04;;;;;;;2.88;0.55;;;16.50;99.70;;;;;;4935720;29;20418;-79
2022/07/16 07:45:30;;;;;;;2.10;0.52;;;16.40;99.90;;;;;;4938415;28;20047;-79
2022/07/16 07:47:55;;;;;;;;;;;16.40;99.90;;;;;;4922556;29;20447;-78
2022/07/16 07:50:21;;;;;;;2.15;0.63;;;16.60;99.90;;;;;;4940169;29;19918;-79
2022/07/16 07:52:47;;;;;;;1.55;0.60;;;16.70;99.90;;;;;;4920520;29;20090;-79
2022/07/16 07:55:13;;;;;;;3.33;0.60;;;16.60;99.90;;;;;;4939411;29;20051;-79
2022/07/16 07:57:38;;;;;;;4.28;1.13;;;16.60;99.90;;;;;;4932346;28;20055;-78
2022/07/16 08:00:06;;;;;;;1.20;0.50;;;16.60;99.90;;;;;;4938009;28;20043;-79
2022/07/16 08:02:32;;;;;;;2.50;0.70;;;16.50;99.90;;;;;;4940038;29;20063;-78
2022/07/16 08:04:57;;;;;;;1.73;0.55;;;16.40;99.90;;;;;;4939736;29;20098;-80
2022/07/16 08:07:23;;;;;;;1.85;0.50;;;16.40;99.90;;;;;;4928664;29;20047;-81
2022/07/16 08:09:49;;;;;;;3.03;0.60;;;16.50;99.90;;;;;;4946755;29;20150;-79
2022/07/16 08:12:14;;;;;;;3.22;0.60;;;16.50;99.90;;;;;;4938272;28;20043;-80
2022/07/16 08:14:40;;;;;;;3.47;0.80;;;16.50;99.90;;;;;;4936935;28;20058;-80
2022/07/16 08:17:06;;;;;;;2.17;0.77;;;16.50;99.90;;;;;;4937653;29;20035;-80
2022/07/16 08:19:32;;;;;;;2.22;0.60;;;16.50;99.90;;;;;;4921308;29;20395;-79
2022/07/16 08:21:59;;;;;;;3.33;0.60;;;16.70;99.90;;;;;;4954103;28;20058;-79
2022/07/16 08:27:09;;;;;;;1.85;0.60;;;17.20;99.90;;;;;;4932471;29;20043;-80
2022/07/16 08:29:36;;;;;;;1.63;0.60;;;17.20;99.90;;;;;;4932792;29;20439;-76
2022/07/16 08:32:02;;;;;;;2.78;0.70;;;17.10;99.90;;;;;;4940439;29;20058;-76
2022/07/16 08:34:28;;;;;;;2.65;0.70;;;17.00;99.90;;;;;;4937280;29;20769;-76
2022/07/16 08:36:54;;;;;;;2.95;0.60;;;16.90;99.90;;;;;;4921529;29;20047;-75
2022/07/16 08:39:20;;;;;;;1.75;0.50;;;16.80;99.90;;;;;;4934740;28;20046;-75
2022/07/16 08:41:47;;;;;;;2.75;0.60;;;16.70;99.90;;;;;;4916604;28;20036;-75
2022/07/16 08:44:14;;;;;;;3.08;0.70;;;16.50;99.90;;;;;;4918946;29;20130;-75
2022/07/16 08:46:41;;;;;;;2.72;0.80;;;16.60;99.90;;;;;;4935274;29;20039;-75
2022/07/16 08:49:07;;;;;;;2.47;0.75;;;16.90;99.90;;;;;;4936701;29;20050;-75
2022/07/16 08:51:35;;;;;;;2.40;0.75;;;17.10;99.90;;;;;;4935576;29;20051;-76
2022/07/16 08:54:10;;;;;;;2.78;0.60;;;17.00;99.90;;;;;;4934892;28;20437;-75
2022/07/16 08:56:35;;;;;;;1.77;0.60;;;17.10;99.90;;;;;;4936639;28;20051;-75
2022/07/16 08:59:02;;;;;;;2.83;0.90;;;17.60;99.90;;;;;;4928791;28;20047;-75
2022/07/16 09:01:29;;;;;;;2.55;0.70;;;17.60;99.40;;;;;;4938057;28;20439;-75
2022/07/16 09:03:59;;;;;;;1.73;0.57;;;17.40;98.00;;;;;;4934907;28;20154;-74
2022/07/16 09:06:26;;;;;;;1.42;0.50;;;17.30;98.90;;;;;;4935107;29;20372;-75
2022/07/16 09:08:53;;;;;;;3.35;0.68;;;17.40;97.70;;;;;;4923728;28;20039;-74
2022/07/16 09:11:23;;;;;;;3.22;0.80;;;17.30;97.00;;;;;;4921717;29;20043;-74
2022/07/16 09:14:10;;;;;;;2.80;0.73;;;17.10;96.60;;;;;;4936484;29;20380;-74
2022/07/16 09:16:39;;;;;;;1.48;0.50;;;17.20;97.40;;;;;;4932901;29;20043;-73
2022/07/16 09:19:10;;;;;;;1.92;0.73;;;17.60;96.40;;;;;;4930779;29;20046;-73
2022/07/16 09:22:02;;;;;;;2.00;0.70;;;17.70;96.20;;;;;;4929546;29;20150;-74
2022/07/16 09:27:22;;;;;;;1.75;0.90;;;18.50;95.40;;;;;;5159683;27;20133;-73
2022/07/16 09:29:58;;;;;;;4.00;0.80;;;18.00;95.50;;;;;;5156676;27;20043;-72
2022/07/16 09:32:36;;;;;;;2.70;0.63;;;17.60;95.60;;;;;;5143749;27;20045;-73
2022/07/16 09:35:10;;;;;;;1.73;0.70;;;17.30;96.00;;;;;;5106720;27;20444;-73
2022/07/16 09:37:54;;;;;;;2.33;0.80;;;17.20;96.60;;;;;;5114689;27;20034;-72
2022/07/16 09:40:30;;;;;;;1.80;0.70;;;17.50;95.90;;;;;;5169306;27;20133;-72
2022/07/16 09:42:56;;;;;;;3.80;0.90;;;17.70;95.00;;;;;;5160068;27;20349;-72
2022/07/16 09:45:22;;;;;;;2.97;0.90;;;18.00;95.90;;;;;;5164624;27;20106;-72
2022/07/16 09:47:48;;;;;;;1.77;0.50;;;18.00;95.20;;;;;;5136132;27;20035;-73
2022/07/16 09:50:14;;;;;;;2.58;0.90;;;18.30;94.90;;;;;;5169076;27;20050;-72
2022/07/16 09:52:40;;;;;;;;;;;18.30;94.90;;;;;;5137868;27;20397;-71
2022/07/16 09:55:07;;;;;;;2.40;0.60;;;18.50;94.40;;;;;;5136992;27;19922;-71
2022/07/16 09:57:33;;;;;;;1.77;0.70;;;18.50;94.10;;;;;;5135398;27;20049;-72
2022/07/16 09:59:58;;;;;;;;;;;18.60;94.10;;;;;;5161204;27;20043;-72
2022/07/16 10:02:25;;;;;;;4.13;0.88;;;18.80;93.60;;;;;;5148406;27;20379;-72
2022/07/16 10:04:51;;;;;;;2.42;0.70;;;19.20;94.90;;;;;;5142398;27;20780;-72
2022/07/16 10:07:17;;;;;;;2.15;0.82;;;18.90;92.40;;;;;;5109249;28;20107;-73
2022/07/16 10:09:43;;;;;;;;;;;18.90;92.00;;;;;;5117298;27;20046;-72
2022/07/16 10:12:14;;;;;;;1.37;0.50;;;19.10;93.40;;;;;;5139833;27;19976;-72
2022/07/16 10:14:49;;;;;;;1.90;0.70;;;19.30;93.40;;;;;;5101193;28;20658;-73
2022/07/16 10:17:16;;;;;;;2.75;0.50;;;19.40;93.60;;;;;;5110896;28;20125;-72
2022/07/16 10:19:42;;;;;;;1.70;0.50;;;19.40;93.00;;;;;;5110507;28;20148;-72
2022/07/16 10:22:22;;;;;;;1.63;0.60;;;19.70;93.60;;;;;;5108374;27;20034;-74
2022/07/16 10:24:54;;;;;;;0.93;0.50;;;19.60;93.00;;;;;;5143720;27;20118;-73
2022/07/16 10:27:35;;;;;;;1.45;0.40;;;19.30;93.90;;;;;;5103205;28;20063;-75
2022/07/16 10:30:12;;;;;;;2.17;0.40;;;19.00;93.80;;;;;;5125871;27;20062;-75
2022/07/16 10:33:00;;;;;;;1.38;0.50;;;18.90;93.60;;;;;;5109296;28;20051;-76
2022/07/16 10:35:40;;;;;;;2.58;0.60;;;18.50;94.40;;;;;;5109464;28;20495;-76
2022/07/16 10:38:09;;;;;;;2.78;0.57;;;18.10;94.10;;;;;;5114404;27;20338;-77
2022/07/16 10:40:37;;;;;;;1.55;0.63;;;18.20;94.50;;;;;;5092041;27;20068;-77
2022/07/16 10:43:09;;;;;;;2.15;0.60;;;18.30;94.00;;;;;;5089057;28;20043;-77
2022/07/16 10:45:54;;;;;;;3.03;0.70;;;18.50;94.00;;;;;;5095981;28;20038;-76
2022/07/16 10:48:22;;;;;;;2.85;0.80;;;19.00;94.80;;;;;;5081755;27;20047;-77
2022/07/16 10:51:16;;;;;;;2.75;0.70;;;19.10;94.10;;;;;;5091719;28;20031;-79
2022/07/16 10:53:57;;;;;;;3.80;0.90;;;19.10;94.10;;;;;;5134252;27;20055;-78
2022/07/16 10:56:48;;;;;;;2.28;0.60;;;18.50;94.30;;;;;;5089712;28;20189;-76
2022/07/16 10:59:19;;;;;;;1.67;0.70;;;18.60;94.40;;;;;;5080673;28;20055;-77
2022/07/16 11:01:48;;;;;;;1.55;0.40;;;18.70;94.20;;;;;;5099318;27;20043;-77
2022/07/16 11:04:14;;;;;;;1.50;0.60;;;19.00;95.00;;;;;;5099850;28;20109;-77
2022/07/16 11:06:41;;;;;;;3.10;0.80;;;18.70;95.10;;;;;;5104015;27;20039;-77
2022/07/16 11:09:08;;;;;;;2.72;0.80;;;18.20;95.30;;;;;;5080493;28;20115;-77
2022/07/16 11:11:40;;;;;;;2.92;0.73;;;18.00;95.80;;;;;;5103597;27;20031;-77
2022/07/16 11:14:07;;;;;;;2.35;0.70;;;18.60;96.00;;;;;;5090389;28;20040;-78
2022/07/16 11:16:33;;;;;;;1.60;0.43;;;18.80;95.90;;;;;;5101993;27;20038;-77
2022/07/16 11:19:00;;;;;;;;;;;18.60;95.70;;;;;;5096527;28;20406;-77
2022/07/16 11:21:26;;;;;;;1.75;0.55;;;18.30;95.20;;;;;;5134172;27;20378;-78
2022/07/16 11:23:53;;;;;;;;;;;18.40;95.50;;;;;;5105736;27;20047;-78
2022/07/16 11:26:19;;;;;;;1.98;0.77;;;18.50;95.50;;;;;;5124014;27;20001;-77
2022/07/16 11:28:52;;;;;;;2.63;0.52;;;19.00;95.40;;;;;;5087416;28;20040;-78
2022/07/16 11:31:32;;;;;;;2.55;0.50;;;19.30;93.80;;;;;;5119695;27;20036;-77
2022/07/16 11:34:00;;;;;;;2.22;0.68;;;19.70;93.90;;;;;;5090034;28;20036;-77
2022/07/16 11:36:27;;;;;;;2.03;0.60;;;19.60;93.80;;;;;;5072344;28;20047;-77
2022/07/16 11:39:09;;;;;;;2.05;0.63;;;19.00;93.10;;;;;;5124227;27;20040;-77
2022/07/16 11:41:40;;;;;;;3.20;0.90;;;19.20;94.20;;;;;;5122942;27;20482;-75
2022/07/16 11:44:11;;;;;;;3.13;0.88;;;19.90;94.40;;;;;;5111181;27;20036;-76
2022/07/16 11:46:50;;;;;;;4.32;0.90;;;19.90;93.30;;;;;;5082215;28;20037;-75
2022/07/16 11:49:24;;;;;;;2.15;0.60;;;20.20;93.00;;;;;;5086833;28;20708;-76
2022/07/16 11:51:50;;;;;;;1.67;0.70;;;20.50;94.10;;;;;;5122334;27;20082;-76
2022/07/16 11:54:16;;;;;;;4.05;1.10;;;20.30;92.40;;;;;;5090999;28;20036;-75
2022/07/16 11:56:42;;;;;;;;;;;20.30;93.00;;;;;;5122770;27;20390;-76
2022/07/16 11:59:19;;;;;;;3.03;0.80;;;20.30;92.70;;;;;;5106246;28;19922;-78
2022/07/16 12:01:46;;;;;;;1.83;0.70;;;19.50;92.90;;;;;;5093946;28;20130;-77
2022/07/16 12:04:12;;;;;;;2.63;0.65;;;19.40;94.30;;;;;;5087748;28;20063;-77
2022/07/16 12:06:46;;;;;;;1.42;0.50;;;19.50;93.30;;;;;;5116113;27;20051;-77
2022/07/16 12:09:12;;;;;;;2.83;0.75;;;19.00;94.00;;;;;;5123825;27;20043;-77
2022/07/16 12:11:38;;;;;;;;;;;19.10;94.70;;;;;;5107570;28;20055;-76
2022/07/16 12:14:04;;;;;;;3.33;1.00;;;19.20;93.90;;;;;;5106526;28;19923;-77
2022/07/16 12:16:30;;;;;;;;;;;19.40;93.80;;;;;;5107126;28;20047;-78
2022/07/16 12:19:03;;;;;;;2.85;0.90;;;19.30;94.20;;;;;;5121739;27;19976;-78
2022/07/16 12:21:32;;;;;;;2.03;0.75;;;19.10;94.40;;;;;;5121344;27;20058;-78
2022/07/16 12:23:57;;;;;;;3.25;0.75;;;19.80;94.50;;;;;;5090316;28;20047;-78
2022/07/16 12:26:30;;;;;;;;;;;19.90;94.20;;;;;;5121962;27;20403;-77
2022/07/16 12:28:57;;;;;;;3.13;0.80;;;20.10;94.30;;;;;;5088222;28;20034;-78
2022/07/16 12:31:26;;;;;;;3.55;0.82;;;20.30;93.90;;;;;;5106388;28;20081;-77
2022/07/16 12:33:53;;;;;;;2.80;0.70;;;19.90;93.20;;;;;;5123799;27;20123;-77
2022/07/16 12:36:19;;;;;;;3.17;0.80;;;19.90;93.60;;;;;;5120435;27;20044;-77
2022/07/16 12:39:02;;;;;;;;;;;19.70;94.60;;;;;;5088960;28;20032;-77
2022/07/16 12:41:36;;;;;;;3.10;0.88;;;19.60;94.20;;;;;;5085276;28;19916;-77
2022/07/16 12:44:04;;;;;;;1.95;0.68;;;19.70;94.00;;;;;;5120782;27;20118;-76
2022/07/16 12:46:47;;;;;;;1.60;0.60;;;19.80;93.80;;;;;;5088895;28;20367;-77
2022/07/16 12:49:15;;;;;;;2.65;0.82;;;19.90;93.70;;;;;;5070973;28;20121;-76
2022/07/16 12:51:43;;;;;;;3.88;0.70;;;19.50;94.10;;;;;;5109146;27;20044;-77
2022/07/16 12:54:10;;;;;;;1.85;0.70;;;19.20;94.50;;;;;;5082181;28;20051;-77
2022/07/16 12:59:23;;;;;;;4.50;0.73;;;19.30;93.70;;;;;;5081767;28;20048;-78
2022/07/16 13:01:49;;;;;;;2.60;0.80;;;19.40;94.30;;;;;;5082537;28;20105;-77
2022/07/16 13:04:15;;;;;;;2.30;0.68;;;19.30;93.20;;;;;;5088529;28;20051;-77
2022/07/16 13:06:42;;;;;;;0.98;0.50;;;19.40;93.20;;;;;;5087459;28;20186;-77